createdAt,value
2018-11-27T00:00:26.197Z,89.44
2018-11-27T00:03:07.312Z,89.42
2018-11-27T00:05:36.998Z,89.33
2018-11-27T00:08:06.049Z,89.28
2018-11-27T00:10:36.149Z,90.10
2018-11-27T00:13:05.343Z,89.74
2018-11-27T00:15:33.788Z,89.66
2018-11-27T00:18:02.597Z,90.03
2018-11-27T00:20:31.092Z,89.40
2018-11-27T00:22:59.988Z,89.13
2018-11-27T00:25:28.477Z,90.18
2018-11-27T00:27:57.157Z,89.80
2018-11-27T00:30:25.699Z,89.67
2018-11-27T00:32:55.064Z,89.93
2018-11-27T00:35:23.929Z,89.84
2018-11-27T00:37:53.408Z,89.76
2018-11-27T00:40:22.929Z,89.42
2018-11-27T00:42:51.486Z,89.64
2018-11-27T00:45:21.719Z,90.13
2018-11-27T00:47:51.206Z,90.09
2018-11-27T00:50:22.259Z,90.24
2018-11-27T00:52:50.983Z,89.83
2018-11-27T00:55:20.755Z,90.07
2018-11-27T00:57:52.342Z,90.42
2018-11-27T01:00:23.311Z,90.26
2018-11-27T01:02:51.864Z,90.06
2018-11-27T01:05:21.995Z,89.94
2018-11-27T01:07:50.471Z,90.03
2018-11-27T01:10:23.974Z,90.42
2018-11-27T01:12:52.579Z,90.09
2018-11-27T01:15:21.167Z,90.07
2018-11-27T01:17:51.916Z,90.28
2018-11-27T01:20:21.249Z,90.05
2018-11-27T01:22:49.647Z,89.79
2018-11-27T01:25:18.113Z,90.10
2018-11-27T01:27:46.564Z,90.30
2018-11-27T01:30:16.934Z,90.04
2018-11-27T01:32:45.587Z,89.96
2018-11-27T01:35:18.288Z,90.08
2018-11-27T01:37:47.503Z,90.38
2018-11-27T01:40:21.207Z,90.91
2018-11-27T01:42:50.810Z,90.24
2018-11-27T01:45:20.274Z,90.87
2018-11-27T01:47:49.721Z,90.60
2018-11-27T01:50:18.828Z,91.03
2018-11-27T01:52:47.410Z,91.25
2018-11-27T01:55:18.837Z,90.92
2018-11-27T01:57:47.223Z,91.05
2018-11-27T02:00:25.387Z,90.68
2018-11-27T02:02:54.557Z,90.75
2018-11-27T02:05:23.591Z,90.37
2018-11-27T02:07:52.872Z,90.87
2018-11-27T02:10:21.370Z,90.55
2018-11-27T02:12:51.347Z,90.66
2018-11-27T02:15:25.128Z,90.64
2018-11-27T02:17:54.095Z,90.84
2018-11-27T02:20:22.598Z,90.99
2018-11-27T02:22:51.026Z,90.92
2018-11-27T02:25:25.130Z,91.14
2018-11-27T02:27:53.611Z,91.15
2018-11-27T02:30:23.272Z,91.70
2018-11-27T02:32:51.720Z,91.48
2018-11-27T02:35:21.244Z,91.10
2018-11-27T02:37:50.780Z,90.95
2018-11-27T02:40:19.395Z,91.36
2018-11-27T02:42:47.826Z,90.88
2018-11-27T02:45:17.963Z,91.09
2018-11-27T02:47:47.273Z,91.09
2018-11-27T02:50:17.112Z,90.65
2018-11-27T02:52:45.587Z,91.26
2018-11-27T02:55:24.766Z,90.87
2018-11-27T02:57:53.249Z,90.91
2018-11-27T03:00:24.643Z,91.47
2018-11-27T03:02:53.140Z,91.36
2018-11-27T03:05:39.877Z,91.12
2018-11-27T03:08:08.335Z,91.56
2018-11-27T03:10:36.824Z,91.78
2018-11-27T03:13:05.466Z,91.81
2018-11-27T03:15:33.954Z,91.29
2018-11-27T03:18:02.353Z,91.48
2018-11-27T03:20:30.899Z,91.83
2018-11-27T03:22:59.362Z,91.53
2018-11-27T03:25:27.880Z,91.76
2018-11-27T03:27:56.270Z,91.50
2018-11-27T03:30:26.217Z,91.52
2018-11-27T03:32:54.841Z,91.62
2018-11-27T03:35:24.287Z,91.56
2018-11-27T03:37:52.931Z,91.82
2018-11-27T03:40:22.713Z,91.59
2018-11-27T03:42:51.208Z,91.82
2018-11-27T03:45:20.345Z,92.02
2018-11-27T03:47:48.905Z,91.78
2018-11-27T03:50:22.393Z,91.47
2018-11-27T03:52:50.841Z,91.38
2018-11-27T03:55:19.294Z,91.23
2018-11-27T03:57:48.381Z,91.82
2018-11-27T04:00:22.396Z,91.17
2018-11-27T04:02:52.506Z,91.84
2018-11-27T04:05:21.244Z,91.45
2018-11-27T04:07:49.736Z,91.50
2018-11-27T04:10:19.237Z,92.35
2018-11-27T04:12:47.662Z,92.06
2018-11-27T04:15:16.857Z,91.43
2018-11-27T04:17:45.427Z,91.71
2018-11-27T04:20:14.075Z,92.46
2018-11-27T04:22:43.434Z,92.34
2018-11-27T04:25:19.700Z,92.67
2018-11-27T04:27:48.650Z,91.88
2018-11-27T04:30:19.835Z,92.24
2018-11-27T04:32:48.983Z,91.53
2018-11-27T04:35:18.383Z,91.36
2018-11-27T04:37:46.890Z,92.01
2018-11-27T04:40:17.122Z,92.30
2018-11-27T04:42:45.587Z,92.01
2018-11-27T04:45:17.272Z,92.05
2018-11-27T04:47:46.600Z,91.79
2018-11-27T04:50:15.874Z,92.15
2018-11-27T04:52:44.485Z,91.79
2018-11-27T04:55:14.145Z,92.08
2018-11-27T04:57:42.936Z,91.90
2018-11-27T05:00:17.364Z,91.68
2018-11-27T05:02:45.879Z,91.94
2018-11-27T05:05:14.312Z,91.56
2018-11-27T05:07:42.724Z,91.93
2018-11-27T05:10:13.977Z,92.17
2018-11-27T05:12:42.889Z,92.00
2018-11-27T05:15:13.634Z,92.48
2018-11-27T05:17:47.952Z,92.36
2018-11-27T05:20:12.533Z,92.35
2018-11-27T05:22:41.257Z,92.55
2018-11-27T05:25:17.254Z,91.95
2018-11-27T05:27:48.490Z,92.39
2018-11-27T05:30:20.903Z,92.49
2018-11-27T05:32:49.412Z,92.16
2018-11-27T05:35:19.097Z,92.27
2018-11-27T05:37:48.556Z,91.96
2018-11-27T05:40:18.216Z,92.14
2018-11-27T05:42:47.181Z,91.92
2018-11-27T05:45:16.861Z,92.25
2018-11-27T05:47:45.434Z,92.15
2018-11-27T05:50:14.912Z,92.08
2018-11-27T05:52:43.474Z,91.93
2018-11-27T05:55:12.976Z,91.90
2018-11-27T05:57:41.620Z,91.83
2018-11-27T06:00:15.432Z,91.92
2018-11-27T06:02:44.132Z,91.98
2018-11-27T06:05:17.598Z,92.07
2018-11-27T06:07:46.218Z,92.05
2018-11-27T06:10:15.775Z,92.30
2018-11-27T06:12:46.184Z,91.89
2018-11-27T06:15:22.444Z,91.81
2018-11-27T06:17:52.937Z,91.76
2018-11-27T06:20:22.430Z,91.72
2018-11-27T06:22:51.151Z,91.79
2018-11-27T06:25:21.750Z,91.47
2018-11-27T06:27:53.610Z,92.20
2018-11-27T06:30:23.376Z,91.70
2018-11-27T06:32:52.786Z,92.10
2018-11-27T06:35:34.248Z,92.04
2018-11-27T06:38:04.058Z,91.53
2018-11-27T06:40:32.689Z,91.25
2018-11-27T06:43:01.156Z,91.55
2018-11-27T06:45:29.662Z,91.53
2018-11-27T06:47:58.110Z,91.34
2018-11-27T06:50:26.527Z,91.55
2018-11-27T06:52:54.986Z,90.97
2018-11-27T06:55:24.317Z,91.78
2018-11-27T06:57:52.928Z,91.02
2018-11-27T07:00:25.591Z,91.42
2018-11-27T07:02:54.357Z,91.58
2018-11-27T07:05:22.862Z,91.62
2018-11-27T07:07:52.964Z,91.54
2018-11-27T07:10:27.511Z,91.51
2018-11-27T07:13:01.347Z,91.34
2018-11-27T07:15:29.777Z,91.90
2018-11-27T07:17:58.235Z,91.92
2018-11-27T07:20:26.715Z,91.40
2018-11-27T07:22:55.116Z,91.48
2018-11-27T07:25:23.696Z,91.67
2018-11-27T07:27:52.330Z,91.91
2018-11-27T07:30:23.781Z,91.05
2018-11-27T07:32:52.321Z,91.12
2018-11-27T07:35:20.976Z,91.56
2018-11-27T07:37:50.450Z,91.07
2018-11-27T07:40:22.899Z,90.92
2018-11-27T07:42:53.487Z,91.13
2018-11-27T07:45:22.997Z,91.55
2018-11-27T07:47:51.534Z,90.99
2018-11-27T07:50:20.148Z,91.31
2018-11-27T07:52:48.642Z,90.99
2018-11-27T07:55:21.447Z,91.38
2018-11-27T07:57:50.681Z,91.39
2018-11-27T08:00:22.774Z,91.26
2018-11-27T08:02:52.992Z,90.86
2018-11-27T08:05:25.274Z,90.72
2018-11-27T08:07:54.936Z,90.63
2018-11-27T08:10:24.504Z,90.99
2018-11-27T08:12:53.036Z,90.35
2018-11-27T08:15:23.680Z,90.68
2018-11-27T08:17:52.096Z,90.35
2018-11-27T08:20:23.243Z,90.33
2018-11-27T08:22:51.726Z,90.12
2018-11-27T08:25:20.215Z,90.02
2018-11-27T08:27:48.663Z,90.15
2018-11-27T08:30:19.094Z,89.79
2018-11-27T08:32:47.629Z,89.47
2018-11-27T08:35:31.808Z,90.01
2018-11-27T08:38:01.843Z,89.47
2018-11-27T08:40:33.960Z,89.64
2018-11-27T08:43:02.425Z,88.79
2018-11-27T08:45:30.820Z,88.78
2018-11-27T08:47:59.256Z,89.33
2018-11-27T08:50:28.362Z,88.50
2018-11-27T08:53:00.991Z,89.03
2018-11-27T08:55:31.546Z,88.64
2018-11-27T08:58:00.782Z,88.92
2018-11-27T09:00:29.246Z,89.05
2018-11-27T09:02:58.050Z,89.00
2018-11-27T09:05:26.482Z,88.38
2018-11-27T09:07:54.964Z,88.17
2018-11-27T09:10:25.516Z,87.83
2018-11-27T09:12:54.015Z,87.40
2018-11-27T09:15:23.347Z,87.17
2018-11-27T09:18:01.298Z,87.08
2018-11-27T09:20:29.774Z,87.13
2018-11-27T09:22:58.204Z,86.27
2018-11-27T09:25:26.665Z,86.52
2018-11-27T09:27:55.063Z,86.87
2018-11-27T09:30:24.799Z,86.53
2018-11-27T09:32:53.806Z,86.14
2018-11-27T09:35:22.886Z,86.24
2018-11-27T09:37:51.355Z,86.17
2018-11-27T09:40:20.391Z,85.69
2018-11-27T09:42:48.894Z,85.18
2018-11-27T09:45:21.173Z,85.33
2018-11-27T09:47:52.235Z,85.32
2018-11-27T09:50:20.655Z,84.95
2018-11-27T09:52:49.172Z,85.15
2018-11-27T09:55:19.697Z,85.03
2018-11-27T09:57:48.524Z,85.11
2018-11-27T10:00:21.971Z,84.02
2018-11-27T10:02:51.234Z,85.03
2018-11-27T10:05:20.264Z,85.03
2018-11-27T10:07:49.667Z,83.67
2018-11-27T10:10:19.882Z,82.60
2018-11-27T10:12:48.446Z,81.01
2018-11-27T10:15:17.746Z,81.01
2018-11-27T10:17:50.497Z,80.66
2018-11-27T10:20:20.155Z,80.15
2018-11-27T10:22:48.634Z,80.72
2018-11-27T10:25:17.049Z,80.58
2018-11-27T10:27:45.673Z,80.21
2018-11-27T10:30:16.278Z,79.49
2018-11-27T10:32:44.853Z,79.88
2018-11-27T10:35:20.142Z,79.11
2018-11-27T10:37:48.604Z,79.91
2018-11-27T10:40:17.271Z,79.85
2018-11-27T10:42:45.850Z,78.80
2018-11-27T10:45:18.886Z,79.02
2018-11-27T10:47:48.579Z,78.83
2018-11-27T10:50:18.534Z,79.57
2018-11-27T10:52:48.296Z,79.42
2018-11-27T10:55:17.794Z,79.36
2018-11-27T10:57:46.334Z,79.25
2018-11-27T11:00:24.100Z,78.67
2018-11-27T11:02:57.912Z,78.92
2018-11-27T11:05:27.772Z,79.39
2018-11-27T11:07:55.911Z,79.30
2018-11-27T11:10:24.399Z,78.58
2018-11-27T11:12:52.963Z,79.08
2018-11-27T11:15:21.391Z,78.30
2018-11-27T11:17:49.862Z,78.35
2018-11-27T11:20:18.608Z,77.85
2018-11-27T11:22:47.062Z,77.45
2018-11-27T11:25:16.821Z,76.44
2018-11-27T11:27:46.492Z,76.43
2018-11-27T11:30:18.285Z,76.46
2018-11-27T11:32:46.856Z,76.80
2018-11-27T11:35:15.737Z,76.38
2018-11-27T11:37:44.374Z,76.53
2018-11-27T11:40:21.035Z,76.47
2018-11-27T11:42:51.107Z,76.52
2018-11-27T11:45:19.508Z,76.24
2018-11-27T11:47:47.988Z,75.92
2018-11-27T11:50:17.736Z,76.06
2018-11-27T11:52:49.119Z,76.25
2018-11-27T11:55:18.249Z,75.81
2018-11-27T11:57:47.478Z,75.87
2018-11-27T12:00:19.753Z,76.08
2018-11-27T12:02:48.227Z,76.01
2018-11-27T12:05:16.662Z,75.58
2018-11-27T12:07:45.117Z,76.42
2018-11-27T12:10:14.711Z,75.31
2018-11-27T12:12:44.000Z,75.44
2018-11-27T12:15:14.486Z,75.63
2018-11-27T12:17:43.737Z,75.49
2018-11-27T12:20:14.183Z,74.69
2018-11-27T12:22:44.895Z,75.79
2018-11-27T12:25:14.607Z,74.93
2018-11-27T12:27:43.070Z,75.07
2018-11-27T12:30:16.607Z,75.29
2018-11-27T12:32:45.065Z,75.95
2018-11-27T12:35:14.121Z,75.11
2018-11-27T12:37:42.695Z,75.67
2018-11-27T12:40:15.194Z,75.27
2018-11-27T12:42:44.365Z,74.92
2018-11-27T12:45:21.822Z,75.69
2018-11-27T12:47:50.430Z,75.28
2018-11-27T12:50:23.923Z,74.64
2018-11-27T12:52:52.397Z,75.89
2018-11-27T12:55:22.134Z,74.99
2018-11-27T12:57:50.722Z,75.12
2018-11-27T13:00:21.443Z,73.92
2018-11-27T13:02:49.976Z,72.28
2018-11-27T13:05:28.575Z,74.33
2018-11-27T13:08:00.103Z,75.04
2018-11-27T13:10:28.614Z,75.35
2018-11-27T13:12:57.155Z,74.53
2018-11-27T13:15:25.630Z,74.92
2018-11-27T13:17:54.415Z,74.17
2018-11-27T13:20:22.948Z,74.31
2018-11-27T13:22:51.777Z,74.55
2018-11-27T13:25:24.519Z,74.87
2018-11-27T13:27:55.360Z,75.13
2018-11-27T13:30:31.802Z,74.98
2018-11-27T13:33:07.148Z,74.76
2018-11-27T13:35:35.881Z,76.00
2018-11-27T13:38:04.415Z,75.72
2018-11-27T13:40:32.888Z,75.55
2018-11-27T13:43:01.342Z,75.58
2018-11-27T13:45:29.793Z,75.46
2018-11-27T13:47:58.209Z,75.67
2018-11-27T13:50:26.668Z,75.12
2018-11-27T13:52:55.107Z,75.23
2018-11-27T13:55:23.626Z,74.95
2018-11-27T13:57:52.110Z,74.98
2018-11-27T14:00:20.883Z,74.92
2018-11-27T14:02:51.755Z,74.78
2018-11-27T14:05:21.526Z,75.28
2018-11-27T14:07:50.050Z,74.68
2018-11-27T14:10:19.541Z,74.61
2018-11-27T14:12:48.020Z,74.32
2018-11-27T14:15:19.716Z,75.04
2018-11-27T14:17:48.333Z,74.63
2018-11-27T14:20:17.492Z,75.29
2018-11-27T14:22:46.965Z,75.14
2018-11-27T14:25:16.194Z,74.82
2018-11-27T14:27:45.591Z,74.76
2018-11-27T14:30:22.261Z,75.59
2018-11-27T14:32:51.059Z,75.49
2018-11-27T14:35:20.545Z,75.12
2018-11-27T14:37:50.210Z,75.38
2018-11-27T14:40:19.815Z,75.30
2018-11-27T14:42:48.379Z,75.65
2018-11-27T14:45:20.319Z,75.67
2018-11-27T14:47:49.995Z,75.51
2018-11-27T14:50:18.539Z,75.38
2018-11-27T14:52:46.984Z,75.74
2018-11-27T14:55:19.466Z,75.93
2018-11-27T14:57:48.972Z,76.28
2018-11-27T15:00:18.701Z,75.61
2018-11-27T15:02:47.197Z,75.73
2018-11-27T15:05:18.324Z,75.15
2018-11-27T15:07:47.271Z,75.64
2018-11-27T15:10:15.737Z,75.24
2018-11-27T15:12:44.231Z,75.81
2018-11-27T15:15:13.578Z,76.25
2018-11-27T15:17:42.020Z,75.74
2018-11-27T15:20:15.621Z,75.05
2018-11-27T15:22:44.155Z,75.69
2018-11-27T15:25:13.084Z,75.58
2018-11-27T15:27:41.549Z,74.98
2018-11-27T15:30:11.861Z,76.32
2018-11-27T15:32:40.338Z,75.94
2018-11-27T15:35:09.258Z,76.11
2018-11-27T15:37:37.698Z,76.82
2018-11-27T15:40:09.454Z,76.44
2018-11-27T15:42:37.859Z,76.82
2018-11-27T15:45:08.367Z,76.56
2018-11-27T15:47:36.780Z,76.65
2018-11-27T15:50:06.471Z,77.29
2018-11-27T15:52:34.891Z,76.30
2018-11-27T15:55:03.465Z,76.16
2018-11-27T15:57:31.944Z,76.82
2018-11-27T16:00:00.391Z,76.96
2018-11-27T16:02:28.851Z,76.53
2018-11-27T16:04:57.305Z,76.48
2018-11-27T16:07:25.804Z,76.22
2018-11-27T16:09:54.300Z,77.15
2018-11-27T16:12:22.733Z,77.71
2018-11-27T16:14:51.212Z,77.62
2018-11-27T16:17:19.665Z,77.04
2018-11-27T16:19:48.092Z,77.01
2018-11-27T16:22:16.660Z,77.74
2018-11-27T16:24:45.120Z,77.04
2018-11-27T16:27:13.596Z,78.05
2018-11-27T16:29:42.114Z,78.17
2018-11-27T16:32:10.577Z,79.17
2018-11-27T16:34:39.058Z,78.69
2018-11-27T16:37:07.568Z,79.72
2018-11-27T16:39:35.983Z,79.33
2018-11-27T16:42:04.926Z,79.56
2018-11-27T16:44:33.487Z,80.30
2018-11-27T16:47:02.085Z,80.53
2018-11-27T16:49:30.596Z,80.54
2018-11-27T16:51:59.084Z,80.69
2018-11-27T16:54:27.545Z,79.25
2018-11-27T16:56:56.111Z,80.68
2018-11-27T16:59:24.879Z,81.10
2018-11-27T17:01:53.304Z,81.50
2018-11-27T17:04:21.888Z,80.79
2018-11-27T17:06:50.320Z,81.74
2018-11-27T17:09:18.835Z,81.56
2018-11-27T17:11:47.315Z,81.51
2018-11-27T17:14:16.287Z,81.30
2018-11-27T17:16:45.629Z,81.09
2018-11-27T17:19:14.597Z,80.59
2018-11-27T17:21:43.071Z,80.99
2018-11-27T17:24:11.535Z,80.93
2018-11-27T17:26:39.992Z,80.27
2018-11-27T17:29:08.626Z,80.19
2018-11-27T17:31:37.348Z,80.59
2018-11-27T17:34:10.824Z,81.25
2018-11-27T17:36:41.487Z,81.56
2018-11-27T17:39:11.836Z,80.95
2018-11-27T17:41:40.419Z,81.06
2018-11-27T17:44:12.046Z,80.67
2018-11-27T17:46:40.647Z,80.72
2018-11-27T17:49:09.163Z,80.75
2018-11-27T17:51:37.649Z,81.58
2018-11-27T17:54:06.267Z,81.85
2018-11-27T17:56:34.754Z,81.72
2018-11-27T17:59:03.223Z,82.09
2018-11-27T18:01:31.742Z,81.41
2018-11-27T18:04:00.211Z,81.36
2018-11-27T18:06:29.051Z,81.65
2018-11-27T18:08:57.525Z,81.90
2018-11-27T18:11:26.019Z,81.83
2018-11-27T18:13:55.328Z,81.65
2018-11-27T18:16:23.799Z,81.74
2018-11-27T18:18:52.225Z,81.75
2018-11-27T18:21:20.735Z,81.13
2018-11-27T18:23:49.180Z,81.09
2018-11-27T18:26:17.612Z,81.52
2018-11-27T18:28:46.070Z,80.88
2018-11-27T18:31:14.565Z,81.28
2018-11-27T18:33:43.055Z,81.62
2018-11-27T18:36:11.516Z,81.82
2018-11-27T18:38:39.935Z,81.52
2018-11-27T18:41:08.390Z,81.09
2018-11-27T18:43:37.516Z,81.56
2018-11-27T18:46:06.499Z,80.72
2018-11-27T18:48:34.986Z,80.61
2018-11-27T18:51:03.485Z,80.65
2018-11-27T18:53:31.949Z,81.15
2018-11-27T18:56:00.431Z,80.70
2018-11-27T18:58:28.897Z,80.92
2018-11-27T19:00:57.977Z,81.12
2018-11-27T19:03:26.437Z,81.65
2018-11-27T19:05:54.929Z,81.09
2018-11-27T19:08:23.384Z,80.65
2018-11-27T19:10:51.877Z,81.00
2018-11-27T19:13:20.319Z,81.16
2018-11-27T19:15:49.537Z,81.35
2018-11-27T19:18:22.988Z,81.18
2018-11-27T19:20:52.054Z,81.25
2018-11-27T19:23:21.932Z,81.37
2018-11-27T19:25:50.513Z,80.99
2018-11-27T19:28:19.000Z,81.06
2018-11-27T19:30:49.005Z,80.98
2018-11-27T19:33:17.742Z,81.41
2018-11-27T19:35:46.182Z,81.08
2018-11-27T19:38:16.407Z,81.34
2018-11-27T19:40:44.923Z,81.03
2018-11-27T19:43:14.099Z,81.08
2018-11-27T19:45:42.664Z,80.57
2018-11-27T19:48:11.954Z,81.16
2018-11-27T19:50:41.480Z,81.37
2018-11-27T19:53:12.393Z,81.14
2018-11-27T19:55:40.480Z,81.42
2018-11-27T19:58:09.845Z,81.92
2018-11-27T20:00:39.016Z,81.27
2018-11-27T20:03:09.279Z,81.09
2018-11-27T20:05:37.824Z,80.97
2018-11-27T20:08:09.341Z,81.50
2018-11-27T20:10:38.647Z,81.55
2018-11-27T20:13:07.162Z,81.24
2018-11-27T20:15:35.696Z,81.22
2018-11-27T20:18:04.287Z,81.88
2018-11-27T20:20:32.799Z,81.40
2018-11-27T20:23:05.713Z,81.80
2018-11-27T20:25:34.528Z,81.97
2018-11-27T20:28:03.666Z,81.48
2018-11-27T20:30:32.315Z,81.76
2018-11-27T20:33:02.516Z,81.28
2018-11-27T20:35:31.788Z,81.81
2018-11-27T20:38:01.906Z,81.45
2018-11-27T20:40:30.424Z,81.91
2018-11-27T20:42:59.503Z,82.02
2018-11-27T20:45:28.139Z,82.06
2018-11-27T20:48:00.564Z,81.94
2018-11-27T20:50:29.039Z,82.02
2018-11-27T20:52:57.560Z,81.41
2018-11-27T20:55:26.044Z,81.96
2018-11-27T20:57:56.787Z,81.30
2018-11-27T21:00:27.581Z,81.47
2018-11-27T21:02:59.402Z,81.36
2018-11-27T21:05:27.921Z,81.13
2018-11-27T21:07:56.428Z,81.66
2018-11-27T21:10:25.884Z,81.47
2018-11-27T21:12:54.439Z,82.00
2018-11-27T21:15:22.986Z,80.93
2018-11-27T21:17:51.494Z,81.26
2018-11-27T21:20:20.046Z,81.39
2018-11-27T21:22:48.590Z,81.23
2018-11-27T21:25:19.297Z,81.62
2018-11-27T21:27:49.658Z,80.92
2018-11-27T21:30:18.452Z,81.40
2018-11-27T21:32:46.926Z,81.33
2018-11-27T21:35:16.402Z,81.46
2018-11-27T21:37:44.884Z,81.27
2018-11-27T21:40:16.076Z,81.02
2018-11-27T21:42:44.706Z,80.59
2018-11-27T21:45:17.242Z,81.21
2018-11-27T21:47:48.919Z,81.31
2018-11-27T21:50:19.462Z,81.66
2018-11-27T21:52:50.795Z,81.47
2018-11-27T21:55:19.262Z,80.58
2018-11-27T21:57:47.725Z,80.92
2018-11-27T22:00:18.082Z,81.30
2018-11-27T22:02:46.984Z,81.22
2018-11-27T22:05:15.640Z,81.33
2018-11-27T22:07:44.548Z,80.47
2018-11-27T22:10:15.485Z,80.61
2018-11-27T22:12:45.120Z,80.39
2018-11-27T22:15:21.143Z,80.87
2018-11-27T22:17:49.624Z,80.79
2018-11-27T22:20:21.399Z,80.81
2018-11-27T22:22:46.605Z,80.48
2018-11-27T22:25:15.077Z,80.42
2018-11-27T22:27:43.539Z,80.40
2018-11-27T22:30:15.155Z,80.34
2018-11-27T22:32:45.567Z,80.39
2018-11-27T22:35:14.028Z,79.87
2018-11-27T22:37:42.511Z,80.07
2018-11-27T22:40:14.107Z,80.24
2018-11-27T22:42:42.696Z,79.62
2018-11-27T22:45:14.390Z,80.29
2018-11-27T22:47:42.900Z,79.93
2018-11-27T22:50:14.487Z,80.10
2018-11-27T22:52:42.942Z,80.27
2018-11-27T22:55:11.773Z,79.64
2018-11-27T22:57:40.244Z,79.41
2018-11-27T23:00:50.994Z,80.01
2018-11-27T23:03:19.785Z,80.20
2018-11-27T23:05:48.245Z,80.09
2018-11-27T23:08:16.780Z,80.67
2018-11-27T23:10:46.336Z,79.80
2018-11-27T23:13:14.791Z,79.50
2018-11-27T23:15:43.265Z,79.78
2018-11-27T23:18:11.694Z,79.67
2018-11-27T23:20:40.200Z,79.67
2018-11-27T23:23:08.652Z,80.58
2018-11-27T23:25:37.149Z,80.39
2018-11-27T23:28:05.775Z,79.63
2018-11-27T23:30:34.247Z,80.35
2018-11-27T23:33:02.693Z,80.20
2018-11-27T23:35:31.145Z,80.11
2018-11-27T23:38:00.037Z,80.12
2018-11-27T23:40:28.506Z,80.09
2018-11-27T23:42:56.993Z,80.18
2018-11-27T23:45:26.363Z,80.07
2018-11-27T23:47:54.786Z,79.77
2018-11-27T23:50:23.414Z,80.20
2018-11-27T23:52:51.840Z,79.90
2018-11-27T23:55:20.857Z,80.51
2018-11-27T23:57:49.622Z,80.79
